Terminal Aerodrome Forecast
Issued by NWS Duluth, MN

Home | Current Version | Previous Version | Text Only | Print | Product List | Glossary On
Versions: 1 2 3 4 5 6 7 8 9 10 11 12 13 14 15 16 17 18 19 20 21 22
666
FTUS43 KDLH 272331
TAFINL
TAF
KINL 272331Z 2800/2824 32010KT P6SM -SHSN SCT023 BKN030 OVC040
     FM280200 32008KT 6SM -SHSN SCT015 OVC030
      TEMPO 2805/2809 4SM -SHSN BKN015 OVC024
     FM281400 32012KT P6SM OVC024
     FM281600 33013G19KT P6SM OVC027
     FM282000 34011KT P6SM BKN035=

USA.gov is the U.S. government's official web portal to all federal, state and local government web resources and services.